createdAt,value
2017-08-20T00:00:03.489Z,12.50
2017-08-20T00:00:48.992Z,12.49
2017-08-20T00:01:49.002Z,12.54
2017-08-20T00:02:49.009Z,12.50
2017-08-20T00:03:49.023Z,12.45
2017-08-20T00:04:49.031Z,12.54
2017-08-20T00:05:49.048Z,12.53
2017-08-20T00:06:49.056Z,12.49
2017-08-20T00:07:49.070Z,12.57
2017-08-20T00:08:49.077Z,12.55
2017-08-20T00:09:49.102Z,12.57
2017-08-20T00:10:49.101Z,12.57
2017-08-20T00:11:49.118Z,12.55
2017-08-20T00:12:49.128Z,12.67
2017-08-20T00:13:49.141Z,12.67
2017-08-20T00:14:49.148Z,12.78
2017-08-20T00:15:49.171Z,12.73
2017-08-20T00:16:49.172Z,12.85
2017-08-20T00:17:49.184Z,12.87
2017-08-20T00:18:49.198Z,12.93
2017-08-20T00:19:49.209Z,12.91
2017-08-20T00:20:49.221Z,12.87
2017-08-20T00:21:49.231Z,13.03
2017-08-20T00:22:49.241Z,13.00
2017-08-20T00:23:49.257Z,13.00
2017-08-20T00:24:49.267Z,12.98
2017-08-20T00:25:49.281Z,12.90
2017-08-20T00:26:49.288Z,12.90
2017-08-20T00:27:49.303Z,12.86
2017-08-20T00:28:49.313Z,12.80
2017-08-20T00:29:49.336Z,12.79
2017-08-20T00:30:49.408Z,12.68
2017-08-20T00:31:49.352Z,12.67
2017-08-20T00:32:49.371Z,12.65
2017-08-20T00:33:49.368Z,12.68
2017-08-20T00:34:49.378Z,12.67
2017-08-20T00:35:49.400Z,12.60
2017-08-20T00:36:49.404Z,12.57
2017-08-20T00:37:49.420Z,12.55
2017-08-20T00:38:49.428Z,12.60
2017-08-20T00:39:49.448Z,12.54
2017-08-20T00:40:49.452Z,12.58
2017-08-20T00:41:49.472Z,12.45
2017-08-20T00:42:49.471Z,12.60
2017-08-20T00:43:49.489Z,12.47
2017-08-20T00:44:49.501Z,12.42
2017-08-20T00:45:49.529Z,12.36
2017-08-20T00:46:49.526Z,12.42
2017-08-20T00:47:49.547Z,12.47
2017-08-20T00:48:49.545Z,12.46
2017-08-20T00:49:50.559Z,12.47
2017-08-20T00:50:49.569Z,12.35
2017-08-20T00:51:50.586Z,12.45
2017-08-20T00:52:49.587Z,12.43
2017-08-20T00:53:49.622Z,12.39
2017-08-20T00:54:49.612Z,12.43
2017-08-20T00:55:49.628Z,12.39
2017-08-20T00:56:49.636Z,12.45
2017-08-20T00:57:49.651Z,12.43
2017-08-20T00:58:49.659Z,12.45
2017-08-20T00:59:49.680Z,12.45
2017-08-20T01:00:49.682Z,12.37
2017-08-20T01:01:49.705Z,12.45
2017-08-20T01:02:49.708Z,12.47
2017-08-20T01:03:49.721Z,12.40
2017-08-20T01:04:49.729Z,12.42
2017-08-20T01:05:49.746Z,12.45
2017-08-20T01:06:49.749Z,12.40
2017-08-20T01:07:49.773Z,12.45
2017-08-20T01:08:49.773Z,12.46
2017-08-20T01:09:49.792Z,12.43
2017-08-20T01:10:49.802Z,12.42
2017-08-20T01:11:49.812Z,12.46
2017-08-20T01:12:49.824Z,12.46
2017-08-20T01:13:49.837Z,12.45
2017-08-20T01:14:49.845Z,12.43
2017-08-20T01:15:49.870Z,12.43
2017-08-20T01:16:49.865Z,12.29
2017-08-20T01:17:49.881Z,12.35
2017-08-20T01:18:49.901Z,12.46
2017-08-20T01:19:49.907Z,12.32
2017-08-20T01:20:49.913Z,12.31
2017-08-20T01:21:49.939Z,12.32
2017-08-20T01:22:49.943Z,12.31
2017-08-20T01:23:49.952Z,12.35
2017-08-20T01:24:49.957Z,12.31
2017-08-20T01:25:49.978Z,12.31
2017-08-20T01:26:49.980Z,12.29
2017-08-20T01:27:50.007Z,12.29
2017-08-20T01:28:50.005Z,12.28
2017-08-20T01:29:50.024Z,12.27
2017-08-20T01:30:50.025Z,12.25
2017-08-20T01:31:50.041Z,12.27
2017-08-20T01:32:50.046Z,12.20
2017-08-20T01:33:50.059Z,12.25
2017-08-20T01:34:50.078Z,12.22
2017-08-20T01:35:50.096Z,12.25
2017-08-20T01:36:50.092Z,12.31
2017-08-20T01:37:50.111Z,12.24
2017-08-20T01:38:50.118Z,12.21
2017-08-20T01:39:50.135Z,12.13
2017-08-20T01:40:50.143Z,12.13
2017-08-20T01:41:50.157Z,12.07
2017-08-20T01:42:50.162Z,12.09
2017-08-20T01:43:50.182Z,11.99
2017-08-20T01:44:50.190Z,12.02
2017-08-20T01:45:50.226Z,12.04
2017-08-20T01:46:50.214Z,11.95
2017-08-20T01:47:50.227Z,11.97
2017-08-20T01:48:50.236Z,11.99
2017-08-20T01:49:50.253Z,12.13
2017-08-20T01:50:50.257Z,12.09
2017-08-20T01:51:50.273Z,12.06
2017-08-20T01:52:50.282Z,12.15
2017-08-20T01:53:50.293Z,12.12
2017-08-20T01:54:50.299Z,12.13
2017-08-20T01:55:50.328Z,12.09
2017-08-20T01:56:50.329Z,12.17
2017-08-20T01:57:50.340Z,12.15
2017-08-20T01:58:50.350Z,12.10
2017-08-20T01:59:50.367Z,12.04
2017-08-20T02:00:50.360Z,12.12
2017-08-20T02:01:50.387Z,12.09
2017-08-20T02:02:50.391Z,12.13
2017-08-20T02:03:50.403Z,12.09
2017-08-20T02:04:50.412Z,12.09
2017-08-20T02:05:50.427Z,12.10
2017-08-20T02:06:50.436Z,12.17
2017-08-20T02:07:50.455Z,12.13
2017-08-20T02:08:50.463Z,12.13
2017-08-20T02:09:50.478Z,12.13
2017-08-20T02:10:50.486Z,12.13
2017-08-20T02:11:50.495Z,12.10
2017-08-20T02:12:50.580Z,12.07
2017-08-20T02:13:50.518Z,12.07
2017-08-20T02:14:50.527Z,12.10
2017-08-20T02:15:50.543Z,12.12
2017-08-20T02:16:50.555Z,12.20
2017-08-20T02:17:50.567Z,12.25
2017-08-20T02:18:50.573Z,12.28
2017-08-20T02:19:51.591Z,12.35
2017-08-20T02:20:50.598Z,12.27
2017-08-20T02:21:50.609Z,12.28
2017-08-20T02:22:50.618Z,12.31
2017-08-20T02:23:50.638Z,12.35
2017-08-20T02:24:50.639Z,12.37
2017-08-20T02:25:50.653Z,12.42
2017-08-20T02:26:50.610Z,12.46
2017-08-20T02:27:50.673Z,12.53
2017-08-20T02:28:50.691Z,12.47
2017-08-20T02:29:50.705Z,12.37
2017-08-20T02:30:50.712Z,12.50
2017-08-20T02:31:50.719Z,12.39
2017-08-20T02:32:50.734Z,12.47
2017-08-20T02:33:50.740Z,12.54
2017-08-20T02:34:50.756Z,12.53
2017-08-20T02:35:50.767Z,12.54
2017-08-20T02:36:50.778Z,12.58
2017-08-20T02:37:50.809Z,12.55
2017-08-20T02:38:50.801Z,12.60
2017-08-20T02:39:50.813Z,12.55
2017-08-20T02:40:50.824Z,12.58
2017-08-20T02:41:50.827Z,12.61
2017-08-20T02:42:50.846Z,12.68
2017-08-20T02:43:50.801Z,12.65
2017-08-20T02:44:50.866Z,12.64
2017-08-20T02:45:50.882Z,12.68
2017-08-20T02:46:50.899Z,12.67
2017-08-20T02:47:50.901Z,12.64
2017-08-20T02:48:50.912Z,12.57
2017-08-20T02:49:50.930Z,12.65
2017-08-20T02:50:50.936Z,12.65
2017-08-20T02:51:50.947Z,12.65
2017-08-20T02:52:50.959Z,12.64
2017-08-20T02:53:50.964Z,12.64
2017-08-20T02:54:50.983Z,12.65
2017-08-20T02:55:50.989Z,12.65
2017-08-20T02:56:51.000Z,12.65
2017-08-20T02:57:51.012Z,12.65
2017-08-20T02:58:51.026Z,12.62
2017-08-20T02:59:51.034Z,12.68
2017-08-20T03:00:51.051Z,12.68
2017-08-20T03:01:51.056Z,12.55
2017-08-20T03:02:51.015Z,12.58
2017-08-20T03:03:51.074Z,12.50
2017-08-20T03:04:51.088Z,12.60
2017-08-20T03:05:51.098Z,12.55
2017-08-20T03:06:51.120Z,12.50
2017-08-20T03:07:51.070Z,12.50
2017-08-20T03:08:51.139Z,12.53
2017-08-20T03:09:51.147Z,12.62
2017-08-20T03:10:51.155Z,12.53
2017-08-20T03:11:51.169Z,12.53
2017-08-20T03:12:51.184Z,12.55
2017-08-20T03:13:51.196Z,12.49
2017-08-20T03:14:51.209Z,12.60
